Time;durP1;ratioP1;P1;durP2;ratioP2;P2;SDS_P1;SDS_P2;PMS_P1;PMS_P2;Temp;Humidity;BMP_temperature;BMP_pressure;BME280_temperature;BME280_humidity;BME280_pressure;Samples;Min_cycle;Max_cycle;Signal;HPM_P1;HPM_P2
2021/01/05 00:02:27;;;;;;;16.20;12.70;;;;;2.40;101064.00;;;;10440323;28;20605;-76
2021/01/05 00:07:28;;;;;;;15.83;11.30;;;;;2.40;101065.00;;;;10423619;28;20253;-76
2021/01/05 00:12:30;;;;;;;16.03;11.53;;;;;2.40;101064.00;;;;10423423;28;20630;-76
2021/01/05 00:17:31;;;;;;;17.27;12.67;;;;;2.40;101065.00;;;;10382253;28;20210;-76
2021/01/05 00:22:32;;;;;;;18.20;13.60;;;;;2.40;101064.00;;;;10398503;28;20198;-76
2021/01/05 00:27:34;;;;;;;19.87;13.77;;;;;2.40;101059.00;;;;10416150;28;20206;-76
2021/01/05 00:32:39;;;;;;;17.20;13.10;;;;;2.40;101074.00;;;;10396222;28;20248;-76
2021/01/05 00:37:40;;;;;;;16.17;12.63;;;;;2.40;101075.00;;;;10438963;28;20210;-76
2021/01/05 00:42:42;;;;;;;17.20;12.77;;;;;2.40;101078.00;;;;10438480;28;20256;-76
2021/01/05 00:47:47;;;;;;;16.73;12.47;;;;;2.40;101067.00;;;;10439103;28;20201;-76
2021/01/05 00:52:48;;;;;;;18.57;13.50;;;;;2.40;101078.00;;;;10439064;28;20534;-76
2021/01/05 00:57:50;;;;;;;18.67;13.50;;;;;2.40;101070.00;;;;10438733;28;20293;-76
2021/01/05 01:02:54;;;;;;;17.97;13.23;;;;;2.30;101079.00;;;;10419801;28;20210;-76
2021/01/05 01:08:02;;;;;;;20.60;14.60;;;;;2.40;101079.00;;;;10392365;28;20642;-76
2021/01/05 01:13:05;;;;;;;20.43;14.20;;;;;2.30;101077.00;;;;10405041;28;20277;-76
2021/01/05 01:18:09;;;;;;;17.17;13.17;;;;;2.30;101082.00;;;;10455120;28;20657;-76
2021/01/05 01:23:15;;;;;;;18.30;13.17;;;;;2.30;101085.00;;;;10437886;28;20198;-76
2021/01/05 01:28:20;;;;;;;18.20;13.03;;;;;2.30;101084.00;;;;10437777;28;20198;-76
2021/01/05 01:33:23;;;;;;;18.17;14.03;;;;;2.30;101086.00;;;;10436777;28;20194;-76
2021/01/05 01:38:26;;;;;;;19.37;14.30;;;;;2.30;101088.00;;;;10436283;28;20199;-76
2021/01/05 01:43:32;;;;;;;16.50;13.47;;;;;2.30;101102.00;;;;10420690;28;20249;-76
2021/01/05 01:48:46;;;;;;;20.23;14.20;;;;;2.30;101088.00;;;;10420746;28;20601;-76
2021/01/05 01:53:54;;;;;;;18.60;13.23;;;;;2.30;101104.00;;;;10422012;28;20194;-76
2021/01/05 01:59:25;;;;;;;21.77;16.13;;;;;2.30;101111.00;;;;10445353;28;20209;-76
2021/01/05 02:04:44;;;;;;;23.10;15.90;;;;;2.30;101106.00;;;;10439281;28;20245;-76
2021/01/05 02:10:12;;;;;;;20.50;14.33;;;;;2.30;101086.00;;;;10371664;28;20249;-76
2021/01/05 02:15:34;;;;;;;21.83;14.93;;;;;2.30;101089.00;;;;10399393;28;20670;-76
2021/01/05 02:20:58;;;;;;;22.80;15.53;;;;;2.30;101092.00;;;;10403270;28;20195;-76
2021/01/05 02:26:10;;;;;;;20.63;14.93;;;;;2.30;101079.00;;;;10419718;28;20193;-76
2021/01/05 02:31:39;;;;;;;20.83;14.83;;;;;2.30;101085.00;;;;10403696;28;20237;-76
2021/01/05 02:37:12;;;;;;;19.33;14.90;;;;;2.30;101082.00;;;;10387515;28;20299;-76
2021/01/05 02:42:54;;;;;;;21.93;15.67;;;;;2.30;101080.00;;;;10402859;28;20222;-76
2021/01/05 02:48:44;;;;;;;22.57;15.17;;;;;2.30;101071.00;;;;10461967;28;20183;-76
2021/01/05 02:54:13;;;;;;;20.07;14.23;;;;;2.30;101076.00;;;;10443272;28;20213;-76
2021/01/05 02:59:58;;;;;;;21.33;15.03;;;;;2.30;101077.00;;;;10443282;28;20642;-76
2021/01/05 03:05:18;;;;;;;21.97;14.97;;;;;2.30;101080.00;;;;10445466;28;20268;-76
2021/01/05 03:10:50;;;;;;;22.13;15.33;;;;;2.30;101069.00;;;;10426132;28;20288;-76
2021/01/05 03:16:35;;;;;;;22.77;17.07;;;;;2.30;101075.00;;;;10412614;28;20697;-76
2021/01/05 03:22:18;;;;;;;21.20;15.47;;;;;2.30;101067.00;;;;10357397;28;20219;-76
2021/01/05 03:27:39;;;;;;;20.40;14.70;;;;;2.30;101069.00;;;;10370748;28;20655;-76
2021/01/05 03:33:01;;;;;;;21.30;14.47;;;;;2.30;101067.00;;;;10430959;28;20186;-76
2021/01/05 03:38:21;;;;;;;23.80;15.43;;;;;2.30;101072.00;;;;10444278;28;20203;-76
2021/01/05 03:43:41;;;;;;;24.67;16.33;;;;;2.30;101062.00;;;;10441261;28;20221;-76
2021/01/05 03:49:02;;;;;;;24.27;17.00;;;;;2.30;101068.00;;;;10459520;28;20194;-76
2021/01/05 03:54:22;;;;;;;25.40;16.63;;;;;2.30;101061.00;;;;10409503;28;20218;-76
2021/01/05 03:59:42;;;;;;;24.37;15.90;;;;;2.30;101068.00;;;;10417193;28;20209;-76
2021/01/05 04:05:05;;;;;;;23.67;15.60;;;;;2.30;101063.00;;;;10400228;28;20191;-76
2021/01/05 04:10:09;;;;;;;21.60;15.23;;;;;2.30;101057.00;;;;10416351;28;20202;-76
2021/01/05 04:15:16;;;;;;;23.47;15.27;;;;;2.30;101058.00;;;;10420850;28;20750;-76
2021/01/05 04:20:20;;;;;;;21.73;15.17;;;;;2.30;101053.00;;;;10422885;28;20198;-76
2021/01/05 04:25:21;;;;;;;22.73;17.23;;;;;2.30;101064.00;;;;10458303;28;20191;-76
2021/01/05 04:30:34;;;;;;;22.47;15.10;;;;;2.30;101067.00;;;;10422973;28;20222;-76
2021/01/05 04:35:36;;;;;;;23.87;16.67;;;;;2.30;101064.00;;;;10415697;28;20215;-76
2021/01/05 04:40:40;;;;;;;25.60;16.77;;;;;2.30;101054.00;;;;10414820;28;20198;-76
2021/01/05 04:46:13;;;;;;;23.40;15.90;;;;;2.30;101054.00;;;;10408146;28;20218;-76
2021/01/05 04:51:35;;;;;;;24.00;16.00;;;;;2.30;101057.00;;;;10401219;28;20226;-76
2021/01/05 04:57:02;;;;;;;25.27;16.40;;;;;2.30;101063.00;;;;10438610;28;20210;-76
2021/01/05 05:02:14;;;;;;;24.00;17.00;;;;;2.30;101063.00;;;;10406392;28;20198;-76
2021/01/05 05:07:47;;;;;;;24.37;17.30;;;;;2.30;101073.00;;;;10413764;28;20253;-76
2021/01/05 05:13:03;;;;;;;24.27;17.20;;;;;2.30;101070.00;;;;10396543;28;20199;-76
2021/01/05 05:18:38;;;;;;;27.23;19.13;;;;;2.30;101075.00;;;;10380516;28;20543;-76
2021/01/05 05:23:47;;;;;;;26.77;16.97;;;;;2.30;101069.00;;;;10427749;28;20210;-76
2021/01/05 05:28:55;;;;;;;26.97;17.37;;;;;2.30;101075.00;;;;10453267;28;20252;-76
2021/01/05 05:34:02;;;;;;;26.80;16.83;;;;;2.30;101071.00;;;;10407299;28;20198;-76
2021/01/05 05:39:32;;;;;;;25.97;17.70;;;;;2.30;101084.00;;;;10380095;28;20716;-76
2021/01/05 05:44:42;;;;;;;25.50;17.03;;;;;2.30;101084.00;;;;10430114;28;20218;-76
2021/01/05 05:50:16;;;;;;;25.20;16.80;;;;;2.30;101090.00;;;;10437326;28;20198;-76
2021/01/05 05:55:45;;;;;;;26.13;17.77;;;;;2.30;101093.00;;;;10411715;28;20221;-76
2021/01/05 06:00:49;;;;;;;25.93;16.53;;;;;2.30;101095.00;;;;10410218;28;20206;-76
2021/01/05 06:05:50;;;;;;;25.03;15.53;;;;;2.30;101105.00;;;;10420793;28;20218;-76
2021/01/05 06:10:52;;;;;;;25.77;17.50;;;;;2.30;101103.00;;;;10420737;28;20220;-76
2021/01/05 06:15:54;;;;;;;27.47;17.03;;;;;2.30;101109.00;;;;10437023;28;20206;-76
2021/01/05 06:20:55;;;;;;;25.20;15.37;;;;;2.30;101116.00;;;;10455300;28;20269;-76
2021/01/05 06:25:56;;;;;;;27.80;16.53;;;;;2.30;101121.00;;;;10437480;28;20236;-76
2021/01/05 06:30:58;;;;;;;23.80;15.83;;;;;2.30;101115.00;;;;10419856;28;20661;-76
2021/01/05 06:35:59;;;;;;;24.17;16.90;;;;;2.40;101130.00;;;;10423077;28;20609;-76
2021/01/05 06:41:03;;;;;;;25.07;15.23;;;;;2.40;101130.00;;;;10398910;28;20285;-76
2021/01/05 06:46:05;;;;;;;22.67;15.50;;;;;2.40;101122.00;;;;10415301;28;20217;-76
2021/01/05 06:51:06;;;;;;;22.80;15.13;;;;;2.40;101135.00;;;;10410849;28;20248;-76
2021/01/05 06:56:14;;;;;;;24.00;16.83;;;;;2.30;101136.00;;;;10441457;28;20241;-76
2021/01/05 07:01:15;;;;;;;24.57;15.57;;;;;2.40;101127.00;;;;10414180;28;20681;-76
2021/01/05 07:06:16;;;;;;;23.40;14.53;;;;;2.40;101129.00;;;;10460941;28;20182;-76
2021/01/05 07:11:17;;;;;;;23.50;15.67;;;;;2.40;101127.00;;;;10460046;28;20194;-76
2021/01/05 07:16:19;;;;;;;22.47;14.87;;;;;2.40;101122.00;;;;10426340;28;20210;-76
2021/01/05 07:21:20;;;;;;;23.40;15.40;;;;;2.40;101132.00;;;;10460053;28;20205;-76
2021/01/05 07:26:21;;;;;;;22.23;15.53;;;;;2.40;101131.00;;;;10442859;28;20194;-76
2021/01/05 07:31:23;;;;;;;22.30;14.70;;;;;2.40;101127.00;;;;10459330;28;20201;-76
2021/01/05 07:36:29;;;;;;;23.50;16.20;;;;;2.40;101141.00;;;;10442885;28;20230;-76
2021/01/05 07:41:30;;;;;;;22.43;14.97;;;;;2.50;101133.00;;;;10425170;28;20198;-76
2021/01/05 07:46:31;;;;;;;22.50;14.03;;;;;2.50;101142.00;;;;10458198;28;20272;-76
2021/01/05 07:51:33;;;;;;;24.23;15.47;;;;;2.50;101143.00;;;;10424237;28;20197;-76
2021/01/05 07:56:34;;;;;;;22.57;15.47;;;;;2.50;101150.00;;;;10404891;28;20211;-76
2021/01/05 08:01:35;;;;;;;22.73;14.90;;;;;2.50;101147.00;;;;10416492;28;20293;-76
2021/01/05 08:06:41;;;;;;;22.17;15.03;;;;;2.50;101148.00;;;;10416641;28;20190;-76
2021/01/05 08:11:43;;;;;;;23.10;15.87;;;;;2.50;101166.00;;;;10400510;28;20195;-76
2021/01/05 08:16:48;;;;;;;25.23;16.60;;;;;2.60;101164.00;;;;10434180;28;20596;-76
2021/01/05 08:21:50;;;;;;;25.83;16.70;;;;;2.60;101177.00;;;;10440413;28;20222;-76
2021/01/05 08:26:51;;;;;;;23.10;15.47;;;;;2.60;101175.00;;;;10423902;28;20286;-76
2021/01/05 08:31:53;;;;;;;24.50;16.37;;;;;2.60;101178.00;;;;10457562;28;20198;-76
2021/01/05 08:36:54;;;;;;;23.93;15.70;;;;;2.60;101179.00;;;;10423646;28;20234;-76
2021/01/05 08:41:56;;;;;;;25.80;17.70;;;;;2.70;101181.00;;;;10456326;28;20719;-76
2021/01/05 08:47:03;;;;;;;24.87;16.93;;;;;2.70;101178.00;;;;10386603;28;20202;-76
2021/01/05 08:52:05;;;;;;;26.27;16.70;;;;;2.70;101178.00;;;;10382147;28;20191;-76
2021/01/05 08:57:06;;;;;;;26.03;17.27;;;;;2.70;101179.00;;;;10394379;28;20235;-76
2021/01/05 09:02:10;;;;;;;29.37;17.97;;;;;2.70;101172.00;;;;10381565;28;20249;-76
2021/01/05 09:07:12;;;;;;;32.30;20.10;;;;;2.80;101169.00;;;;10381340;28;20183;-76
2021/01/05 09:12:13;;;;;;;31.63;18.97;;;;;2.80;101170.00;;;;10398203;28;20191;-76
2021/01/05 09:17:16;;;;;;;30.40;19.90;;;;;2.80;101175.00;;;;10436536;28;20304;-76
2021/01/05 09:22:23;;;;;;;30.23;19.17;;;;;2.90;101173.00;;;;10422669;28;20198;-76
2021/01/05 09:27:24;;;;;;;29.60;18.27;;;;;2.90;101176.00;;;;10437879;28;20190;-76
2021/01/05 09:32:25;;;;;;;30.40;19.83;;;;;3.00;101176.00;;;;10456116;28;20190;-76
2021/01/05 09:37:26;;;;;;;29.40;17.70;;;;;3.10;101172.00;;;;10454723;28;20696;-76
2021/01/05 09:42:29;;;;;;;28.57;19.90;;;;;3.10;101185.00;;;;10437382;28;20240;-76
2021/01/05 09:47:30;;;;;;;31.57;18.37;;;;;3.10;101182.00;;;;10437457;28;20644;-76
2021/01/05 09:52:36;;;;;;;30.33;18.97;;;;;3.10;101183.00;;;;10380317;28;20199;-76
2021/01/05 09:57:37;;;;;;;26.53;18.60;;;;;3.20;101181.00;;;;10413178;28;20321;-76
2021/01/05 10:02:38;;;;;;;28.23;17.97;;;;;3.30;101185.00;;;;10395938;28;20194;-76
2021/01/05 10:07:40;;;;;;;28.20;17.60;;;;;3.20;101182.00;;;;10396200;28;20583;-76
2021/01/05 10:12:42;;;;;;;29.63;20.53;;;;;3.30;101186.00;;;;10397735;28;20277;-76
2021/01/05 10:17:43;;;;;;;29.37;17.60;;;;;3.30;101182.00;;;;10442743;28;20968;-77
2021/01/05 10:22:45;;;;;;;32.13;19.10;;;;;3.30;101184.00;;;;10425650;28;20183;-76
2021/01/05 10:27:46;;;;;;;30.60;18.63;;;;;3.30;101181.00;;;;10463410;28;20213;-76
2021/01/05 10:32:48;;;;;;;29.53;19.03;;;;;3.30;101191.00;;;;10428604;28;20195;-76
2021/01/05 10:37:50;;;;;;;29.67;18.60;;;;;3.30;101185.00;;;;10461693;28;20866;-76
2021/01/05 10:42:51;;;;;;;32.80;18.93;;;;;3.30;101181.00;;;;10427875;28;20293;-76
2021/01/05 10:47:53;;;;;;;30.07;19.23;;;;;3.30;101180.00;;;;10444452;28;20221;-76
2021/01/05 10:52:55;;;;;;;30.00;18.10;;;;;3.30;101182.00;;;;10443814;28;20649;-76
2021/01/05 10:57:57;;;;;;;38.37;22.83;;;;;3.30;101177.00;;;;10460984;28;20263;-76
2021/01/05 11:02:59;;;;;;;33.40;21.23;;;;;3.30;101180.00;;;;10443605;28;20684;-76
2021/01/05 11:08:01;;;;;;;37.03;21.50;;;;;3.30;101176.00;;;;10411389;28;20638;-77
2021/01/05 11:13:02;;;;;;;35.07;22.40;;;;;3.30;101173.00;;;;10406041;28;20198;-77
2021/01/05 11:18:04;;;;;;;33.70;20.03;;;;;3.30;101169.00;;;;10459368;28;20209;-76
2021/01/05 11:23:06;;;;;;;33.00;21.33;;;;;3.40;101165.00;;;;10459745;28;20585;-76
2021/01/05 11:28:07;;;;;;;35.63;21.80;;;;;3.30;101168.00;;;;10458502;28;20182;-77
2021/01/05 11:33:12;;;;;;;34.00;20.50;;;;;3.30;101158.00;;;;10442051;28;20206;-76
2021/01/05 11:38:13;;;;;;;35.00;21.60;;;;;3.30;101150.00;;;;10441803;28;20210;-76
2021/01/05 11:43:15;;;;;;;35.17;20.53;;;;;3.40;101152.00;;;;10419674;28;20219;-76
2021/01/05 11:48:16;;;;;;;36.73;21.23;;;;;3.40;101145.00;;;;10402164;28;20201;-76
2021/01/05 11:53:18;;;;;;;34.63;20.93;;;;;3.40;101150.00;;;;10390902;28;20281;-76
2021/01/05 11:58:19;;;;;;;34.00;20.57;;;;;3.30;101146.00;;;;10422378;28;20284;-76
2021/01/05 12:03:20;;;;;;;28.30;18.87;;;;;3.30;101141.00;;;;10440936;28;20225;-77
2021/01/05 12:08:21;;;;;;;34.27;19.60;;;;;3.50;101141.00;;;;10457203;28;20194;-76
2021/01/05 12:13:23;;;;;;;32.13;18.90;;;;;3.50;101138.00;;;;10440822;28;20190;-76
2021/01/05 12:18:24;;;;;;;29.77;18.30;;;;;3.40;101127.00;;;;10431733;28;20785;-76
2021/01/05 12:23:25;;;;;;;32.20;19.27;;;;;3.40;101137.00;;;;10418280;28;20186;-77
2021/01/05 12:28:27;;;;;;;31.87;19.70;;;;;3.30;101126.00;;;;10456985;28;20198;-76
2021/01/05 12:33:28;;;;;;;31.90;20.73;;;;;3.40;101128.00;;;;10457074;28;20214;-76
2021/01/05 12:38:29;;;;;;;29.30;19.13;;;;;3.50;101117.00;;;;10456526;28;20301;-77
2021/01/05 12:43:30;;;;;;;31.83;19.43;;;;;3.50;101114.00;;;;10430931;28;20223;-77
2021/01/05 12:48:33;;;;;;;34.70;20.13;;;;;3.50;101115.00;;;;10423392;28;20182;-76
2021/01/05 12:53:34;;;;;;;34.90;20.73;;;;;3.50;101108.00;;;;10439454;28;20240;-76
2021/01/05 12:58:35;;;;;;;36.07;21.60;;;;;3.50;101100.00;;;;10454797;28;20246;-76
2021/01/05 13:03:37;;;;;;;32.30;19.37;;;;;3.50;101108.00;;;;10438486;28;20278;-76
2021/01/05 13:08:41;;;;;;;33.13;18.93;;;;;3.70;101106.00;;;;10455291;28;20208;-76
2021/01/05 13:13:43;;;;;;;30.33;18.27;;;;;3.80;101109.00;;;;10422613;28;20202;-76
2021/01/05 13:18:44;;;;;;;25.17;17.57;;;;;3.80;101108.00;;;;10437923;28;20252;-76
2021/01/05 13:23:45;;;;;;;26.67;18.73;;;;;3.70;101121.00;;;;10455464;28;20194;-76
2021/01/05 13:28:47;;;;;;;31.40;19.53;;;;;3.70;101121.00;;;;10437911;28;20267;-77
2021/01/05 13:33:49;;;;;;;33.70;20.33;;;;;3.60;101121.00;;;;10421399;28;20218;-77
2021/01/05 13:38:52;;;;;;;30.00;18.87;;;;;3.50;101137.00;;;;10437747;28;20210;-77
2021/01/05 13:43:55;;;;;;;28.83;17.97;;;;;3.50;101125.00;;;;10437849;28;20272;-76
2021/01/05 13:48:57;;;;;;;29.60;17.83;;;;;3.50;101129.00;;;;10385148;28;20215;-76
2021/01/05 13:53:58;;;;;;;33.23;20.10;;;;;3.50;101129.00;;;;10388519;28;20195;-76
2021/01/05 13:59:02;;;;;;;33.03;19.50;;;;;3.40;101134.00;;;;10374714;28;20232;-76
2021/01/05 14:04:03;;;;;;;34.77;19.30;;;;;3.40;101129.00;;;;10414789;28;20218;-76
2021/01/05 14:09:05;;;;;;;30.93;18.43;;;;;3.30;101130.00;;;;10441165;28;20691;-76
2021/01/05 14:14:06;;;;;;;33.63;19.70;;;;;3.30;101135.00;;;;10463586;28;20542;-76
2021/01/05 14:19:08;;;;;;;34.77;19.63;;;;;3.30;101129.00;;;;10446048;28;20703;-76
2021/01/05 14:24:19;;;;;;;31.10;19.23;;;;;3.30;101135.00;;;;10445643;28;20594;-76
2021/01/05 14:29:21;;;;;;;31.37;19.40;;;;;3.30;101139.00;;;;10462929;28;20256;-77
2021/01/05 14:34:24;;;;;;;33.63;20.47;;;;;3.20;101137.00;;;;10427465;28;20526;-76
2021/01/05 14:39:27;;;;;;;31.63;18.63;;;;;3.20;101138.00;;;;10428528;28;20604;-76
2021/01/05 14:44:41;;;;;;;31.90;18.57;;;;;3.20;101136.00;;;;10447570;28;20772;-76
2021/01/05 14:49:43;;;;;;;33.33;20.40;;;;;3.20;101139.00;;;;10416945;28;20189;-76
2021/01/05 14:54:46;;;;;;;33.07;19.23;;;;;3.20;101133.00;;;;10398860;28;20191;-76
2021/01/05 14:59:47;;;;;;;34.07;18.17;;;;;3.20;101132.00;;;;10476518;28;20206;-76
2021/01/05 15:04:52;;;;;;;31.90;17.87;;;;;3.20;101136.00;;;;10451291;28;20256;-77
2021/01/05 15:09:53;;;;;;;32.60;20.03;;;;;3.20;101138.00;;;;10427464;28;20224;-77
2021/01/05 15:14:55;;;;;;;28.97;17.43;;;;;3.20;101127.00;;;;10466934;28;20208;-76
2021/01/05 15:19:57;;;;;;;27.87;17.70;;;;;3.20;101135.00;;;;10443224;28;20273;-77
2021/01/05 15:24:58;;;;;;;26.70;16.87;;;;;3.10;101133.00;;;;10425256;28;20199;-77
2021/01/05 15:29:59;;;;;;;30.17;17.87;;;;;3.10;101136.00;;;;10426216;28;20201;-77
2021/01/05 15:35:04;;;;;;;30.57;17.43;;;;;3.10;101143.00;;;;10438205;28;20233;-77
2021/01/05 15:40:06;;;;;;;29.23;17.37;;;;;3.10;101135.00;;;;10458415;28;20718;-77
2021/01/05 15:45:08;;;;;;;28.50;17.67;;;;;3.00;101135.00;;;;10480827;28;20578;-77
2021/01/05 15:50:10;;;;;;;27.37;18.33;;;;;3.00;101149.00;;;;10417374;28;20290;-77
2021/01/05 15:55:12;;;;;;;27.90;17.43;;;;;3.00;101140.00;;;;10385301;28;20218;-77
2021/01/05 16:00:15;;;;;;;30.07;16.97;;;;;3.00;101146.00;;;;10415701;28;20294;-76
2021/01/05 16:05:16;;;;;;;27.87;17.33;;;;;3.00;101149.00;;;;10424424;28;20211;-77
2021/01/05 16:10:18;;;;;;;28.13;18.00;;;;;3.00;101150.00;;;;10432881;28;20198;-77
2021/01/05 16:15:21;;;;;;;28.30;18.73;;;;;3.00;101141.00;;;;10417757;28;20552;-77
2021/01/05 16:20:23;;;;;;;30.90;19.17;;;;;3.00;101146.00;;;;10416116;28;20209;-76
2021/01/05 16:25:26;;;;;;;29.87;18.83;;;;;3.00;101151.00;;;;10422356;28;21046;-77
2021/01/05 16:30:30;;;;;;;32.37;20.00;;;;;3.00;101141.00;;;;10412997;28;20205;-76
2021/01/05 16:35:33;;;;;;;34.53;19.53;;;;;3.00;101136.00;;;;10422782;28;20346;-76
2021/01/05 16:40:41;;;;;;;32.57;20.23;;;;;3.00;101134.00;;;;10412106;28;20535;-77
2021/01/05 16:45:42;;;;;;;33.70;20.83;;;;;2.90;101135.00;;;;10433270;28;20605;-77
2021/01/05 16:50:45;;;;;;;34.67;20.90;;;;;2.90;101140.00;;;;10416102;28;20197;-77
2021/01/05 16:55:48;;;;;;;35.13;21.33;;;;;2.90;101145.00;;;;10456675;28;20210;-77
2021/01/05 17:00:53;;;;;;;35.63;20.67;;;;;2.90;101150.00;;;;10396161;28;20580;-77
2021/01/05 17:05:56;;;;;;;35.90;21.80;;;;;2.90;101158.00;;;;10400205;28;20225;-77
2021/01/05 17:10:57;;;;;;;34.47;22.10;;;;;2.90;101150.00;;;;10410280;28;20194;-77
2021/01/05 17:15:59;;;;;;;33.90;20.73;;;;;3.00;101153.00;;;;10421057;28;20220;-77
2021/01/05 17:21:04;;;;;;;30.70;20.60;;;;;2.90;101159.00;;;;10445593;28;20668;-77
2021/01/05 17:26:05;;;;;;;33.97;21.27;;;;;2.90;101170.00;;;;10440323;28;20209;-77
2021/01/05 17:31:06;;;;;;;38.00;21.77;;;;;2.90;101169.00;;;;10428301;28;20202;-77
2021/01/05 17:36:08;;;;;;;37.47;21.83;;;;;2.90;101164.00;;;;10429686;28;20905;-77
2021/01/05 17:41:11;;;;;;;37.43;21.33;;;;;2.90;101156.00;;;;10440374;28;20206;-77
2021/01/05 17:46:12;;;;;;;37.03;24.00;;;;;2.90;101171.00;;;;10388247;28;20219;-77
2021/01/05 17:51:14;;;;;;;37.60;22.60;;;;;2.90;101173.00;;;;10397875;28;20201;-77
2021/01/05 17:56:15;;;;;;;37.10;22.77;;;;;2.90;101171.00;;;;10409746;28;20259;-77
2021/01/05 18:01:17;;;;;;;39.40;23.37;;;;;2.90;101169.00;;;;10404724;28;20731;-77
2021/01/05 18:06:28;;;;;;;37.53;23.33;;;;;2.90;101175.00;;;;10429642;28;20220;-77
2021/01/05 18:11:30;;;;;;;42.73;25.53;;;;;2.90;101170.00;;;;10437932;28;20198;-77
2021/01/05 18:16:31;;;;;;;42.47;24.60;;;;;2.90;101175.00;;;;10454181;28;20206;-77
2021/01/05 18:21:37;;;;;;;37.23;24.53;;;;;2.90;101173.00;;;;10447957;28;20219;-77
2021/01/05 18:26:38;;;;;;;40.17;23.63;;;;;2.90;101173.00;;;;10411056;28;20654;-78
2021/01/05 18:31:40;;;;;;;40.63;24.43;;;;;2.90;101181.00;;;;10402579;28;20194;-78
2021/01/05 18:36:41;;;;;;;38.73;24.90;;;;;2.90;101179.00;;;;10425977;28;20294;-77
2021/01/05 18:41:42;;;;;;;37.40;24.17;;;;;2.90;101180.00;;;;10440381;28;20194;-78
2021/01/05 18:46:47;;;;;;;40.37;25.00;;;;;2.90;101186.00;;;;10415584;28;20214;-78
2021/01/05 18:51:54;;;;;;;38.33;23.80;;;;;2.90;101177.00;;;;10423533;28;20199;-77
2021/01/05 18:56:57;;;;;;;38.67;23.80;;;;;2.80;101188.00;;;;10410543;28;20237;-78
2021/01/05 19:01:58;;;;;;;37.40;23.73;;;;;2.80;101185.00;;;;10429956;28;20210;-77
2021/01/05 19:07:02;;;;;;;39.53;24.13;;;;;2.80;101182.00;;;;10446593;28;20187;-78
2021/01/05 19:12:04;;;;;;;37.93;23.23;;;;;2.80;101183.00;;;;10419386;28;20314;-78
2021/01/05 19:17:26;;;;;;;42.30;25.50;;;;;2.80;101187.00;;;;10422964;28;20208;-78
2021/01/05 19:22:27;;;;;;;38.43;23.67;;;;;2.70;101189.00;;;;10438409;28;20233;-78
2021/01/05 19:27:30;;;;;;;39.23;22.63;;;;;2.70;101199.00;;;;10433343;28;20206;-77
2021/01/05 19:32:32;;;;;;;41.33;24.27;;;;;2.60;101192.00;;;;10400615;28;20195;-77
2021/01/05 19:37:33;;;;;;;36.10;23.17;;;;;2.50;101202.00;;;;10450066;28;20218;-78
2021/01/05 19:42:42;;;;;;;44.50;25.77;;;;;2.50;101199.00;;;;10449734;28;20229;-78
2021/01/05 19:47:44;;;;;;;40.63;24.07;;;;;2.50;101199.00;;;;10436046;28;20240;-78
2021/01/05 19:52:47;;;;;;;37.13;23.97;;;;;2.50;101208.00;;;;10441941;28;20669;-78
2021/01/05 19:57:56;;;;;;;40.70;24.87;;;;;2.50;101198.00;;;;10431316;28;20214;-78
2021/01/05 20:03:03;;;;;;;42.40;25.97;;;;;2.40;101200.00;;;;10418767;28;20206;-77
2021/01/05 20:08:07;;;;;;;42.70;24.33;;;;;2.40;101196.00;;;;10398987;28;20240;-78
2021/01/05 20:13:08;;;;;;;44.37;25.80;;;;;2.40;101204.00;;;;10431068;28;20194;-77
2021/01/05 20:18:11;;;;;;;38.20;23.30;;;;;2.40;101197.00;;;;10466050;28;20228;-78
2021/01/05 20:23:12;;;;;;;40.37;23.60;;;;;2.40;101195.00;;;;10420127;28;20206;-78
2021/01/05 20:28:23;;;;;;;38.57;23.47;;;;;2.40;101198.00;;;;10442669;28;20554;-78
2021/01/05 20:33:25;;;;;;;38.20;22.73;;;;;2.40;101197.00;;;;10449733;28;20301;-78
2021/01/05 20:38:27;;;;;;;38.97;23.63;;;;;2.40;101198.00;;;;10448383;28;20624;-78
2021/01/05 20:43:29;;;;;;;37.17;22.50;;;;;2.40;101201.00;;;;10434650;28;20223;-78
2021/01/05 20:48:30;;;;;;;50.33;29.70;;;;;2.40;101189.00;;;;10435401;28;20190;-78
2021/01/05 20:53:32;;;;;;;63.20;36.63;;;;;2.40;101195.00;;;;10440172;28;20193;-78
2021/01/05 20:58:33;;;;;;;56.70;32.67;;;;;2.40;101198.00;;;;10425974;28;20257;-78
2021/01/05 21:03:34;;;;;;;73.77;39.87;;;;;2.40;101203.00;;;;10434553;28;20210;-78
2021/01/05 21:08:43;;;;;;;50.43;28.43;;;;;2.40;101196.00;;;;10414028;28;20907;-78
2021/01/05 21:13:45;;;;;;;46.97;26.17;;;;;2.40;101200.00;;;;10416708;28;20680;-78
2021/01/05 21:18:48;;;;;;;47.80;25.23;;;;;2.40;101197.00;;;;10443118;28;20615;-78
2021/01/05 21:23:49;;;;;;;53.57;28.83;;;;;2.40;101200.00;;;;10399755;28;20270;-78
2021/01/05 21:28:51;;;;;;;45.87;26.17;;;;;2.40;101196.00;;;;10415090;28;20656;-78
2021/01/05 21:33:53;;;;;;;53.60;28.10;;;;;2.40;101202.00;;;;10436663;28;20638;-78
2021/01/05 21:38:55;;;;;;;53.73;26.97;;;;;2.40;101194.00;;;;10408113;28;20234;-78
2021/01/05 21:43:56;;;;;;;53.27;27.23;;;;;2.40;101195.00;;;;10423288;28;20221;-78
2021/01/05 21:48:58;;;;;;;59.20;29.90;;;;;2.50;101197.00;;;;10465754;28;20272;-78
2021/01/05 21:54:02;;;;;;;57.07;30.33;;;;;2.50;101196.00;;;;10423962;28;20766;-77
2021/01/05 21:59:05;;;;;;;54.70;27.77;;;;;2.50;101191.00;;;;10408824;28;20229;-78
2021/01/05 22:04:06;;;;;;;61.77;29.57;;;;;2.50;101193.00;;;;10410027;28;20229;-77
2021/01/05 22:09:08;;;;;;;60.97;29.53;;;;;2.50;101194.00;;;;10421853;28;20191;-77
2021/01/05 22:14:09;;;;;;;63.83;29.37;;;;;2.50;101192.00;;;;10419029;28;20646;-77
2021/01/05 22:19:10;;;;;;;60.23;29.03;;;;;2.50;101196.00;;;;10448512;28;20217;-77
2021/01/05 22:24:12;;;;;;;65.60;29.90;;;;;2.50;101200.00;;;;10447781;28;20205;-77
2021/01/05 22:29:14;;;;;;;65.37;31.00;;;;;2.50;101200.00;;;;10432174;28;20228;-77
2021/01/05 22:34:19;;;;;;;66.93;30.57;;;;;2.50;101204.00;;;;10448301;28;20240;-77
2021/01/05 22:39:20;;;;;;;63.10;31.50;;;;;2.50;101187.00;;;;10444146;28;20202;-77
2021/01/05 22:44:22;;;;;;;63.67;29.60;;;;;2.60;101198.00;;;;10410444;28;20226;-77
2021/01/05 22:49:23;;;;;;;57.90;29.90;;;;;2.60;101202.00;;;;10404902;28;20245;-77
2021/01/05 22:54:24;;;;;;;63.63;28.37;;;;;2.60;101188.00;;;;10421935;28;20199;-77
2021/01/05 22:59:26;;;;;;;66.83;31.63;;;;;2.60;101187.00;;;;10389795;28;20273;-77
2021/01/05 23:04:27;;;;;;;64.40;31.73;;;;;2.60;101182.00;;;;10404500;28;20277;-77
2021/01/05 23:09:28;;;;;;;65.17;31.50;;;;;2.70;101183.00;;;;10443383;28;20650;-77
2021/01/05 23:14:30;;;;;;;64.37;29.90;;;;;2.70;101187.00;;;;10437577;28;20260;-77
2021/01/05 23:19:31;;;;;;;65.10;31.03;;;;;2.70;101185.00;;;;10421036;28;20215;-77
2021/01/05 23:24:32;;;;;;;61.00;29.03;;;;;2.70;101183.00;;;;10404024;28;20271;-77
2021/01/05 23:29:34;;;;;;;59.80;30.50;;;;;2.70;101171.00;;;;10387115;28;20195;-77
2021/01/05 23:34:35;;;;;;;54.47;27.83;;;;;2.80;101166.00;;;;10440189;28;20614;-77
2021/01/05 23:39:36;;;;;;;63.23;31.43;;;;;2.80;101171.00;;;;10417273;28;20203;-77
2021/01/05 23:44:37;;;;;;;58.17;29.33;;;;;2.80;101166.00;;;;10420944;28;20254;-77
2021/01/05 23:49:39;;;;;;;58.87;30.07;;;;;2.80;101168.00;;;;10426334;28;20190;-77
2021/01/05 23:54:40;;;;;;;55.93;29.50;;;;;2.90;101163.00;;;;10443210;28;20198;-77
2021/01/05 23:59:41;;;;;;;51.90;28.37;;;;;2.90;101171.00;;;;10444625;28;20318;-77
